Terminal Aerodrome Forecast
Issued by NWS Cleveland, OH

Home | Current Version | Previous Version | Text Only | Print | Product List | Glossary On
Versions: 1 2 3 4 5 6 7 8 9 10 11 12 13 14 15 16 17 18 19 20 21 22 23 24 25 26 27
000
FTUS41 KCLE 161700
TAFYNG
TAF
KYNG 161739Z 1618/1718 33006KT P6SM BKN030
     FM162000 33004KT P6SM BKN040
     FM162200 33004KT P6SM SCT045
     FM170800 VRB02KT 3SM BR SKC
     FM171100 VRB02KT 3/4SM BR BKN002
     FM171300 22004KT 3SM BR SCT006
     FM171400 23006KT P6SM SCT025=

USA.gov is the U.S. government's official web portal to all federal, state and local government web resources and services.